createdAt,value
2023-02-02T00:01:13.056Z,12.20
2023-02-02T00:06:10.708Z,10.48
2023-02-02T00:11:08.026Z,11.20
2023-02-02T00:16:27.523Z,10.18
2023-02-02T00:21:35.614Z,9.88
2023-02-02T00:26:33.463Z,9.43
2023-02-02T00:31:30.941Z,10.32
2023-02-02T00:36:28.516Z,9.55
2023-02-02T00:41:26.339Z,8.63
2023-02-02T00:46:23.528Z,7.38
2023-02-02T00:51:20.816Z,8.65
2023-02-02T00:56:18.204Z,7.60
2023-02-02T01:01:22.417Z,8.25
2023-02-02T01:06:19.658Z,9.45
2023-02-02T01:11:17.530Z,9.45
2023-02-02T01:16:16.121Z,9.45
2023-02-02T01:21:13.567Z,8.65
2023-02-02T01:26:12.437Z,9.10
2023-02-02T01:31:15.853Z,8.70
2023-02-02T01:36:21.997Z,7.80
2023-02-02T01:41:27.874Z,7.70
2023-02-02T01:46:35.719Z,8.10
2023-02-02T01:51:42.061Z,9.02
2023-02-02T01:56:45.028Z,8.48
2023-02-02T02:01:44.047Z,7.68
2023-02-02T02:06:42.719Z,7.97
2023-02-02T02:11:40.551Z,8.45
2023-02-02T02:16:51.874Z,9.48
2023-02-02T02:22:30.041Z,8.45
2023-02-02T02:28:02.747Z,8.50
2023-02-02T02:33:17.344Z,8.38
2023-02-02T02:38:42.050Z,7.93
2023-02-02T02:43:50.648Z,7.95
2023-02-02T02:48:48.144Z,7.10
2023-02-02T02:53:45.562Z,7.90
2023-02-02T02:59:03.158Z,5.93
2023-02-02T03:04:22.243Z,7.95
2023-02-02T03:09:25.627Z,7.35
2023-02-02T03:14:23.025Z,7.88
2023-02-02T03:19:30.245Z,8.20
2023-02-02T03:24:27.701Z,7.45
2023-02-02T03:29:25.473Z,7.22
2023-02-02T03:34:32.408Z,6.78
2023-02-02T03:39:29.855Z,6.65
2023-02-02T03:44:27.152Z,6.53
2023-02-02T03:49:24.332Z,5.78
2023-02-02T03:54:24.489Z,5.82
2023-02-02T03:59:21.704Z,5.82
2023-02-02T04:04:19.019Z,5.25
2023-02-02T04:09:16.346Z,5.18
2023-02-02T04:14:13.691Z,5.72
2023-02-02T04:19:12.966Z,5.28
2023-02-02T04:24:14.511Z,5.78
2023-02-02T04:29:11.872Z,5.63
2023-02-02T04:34:09.348Z,4.38
2023-02-02T04:39:07.552Z,6.53
2023-02-02T04:44:06.958Z,6.18
2023-02-02T04:49:04.293Z,5.45
2023-02-02T04:54:01.850Z,4.68
2023-02-02T04:59:00.757Z,4.45
2023-02-02T05:04:04.777Z,4.15
2023-02-02T05:09:03.289Z,4.55
2023-02-02T05:14:00.992Z,4.18
2023-02-02T05:18:59.702Z,4.18
2023-02-02T05:23:59.884Z,3.75
2023-02-02T05:28:57.605Z,4.30
2023-02-02T05:33:54.933Z,4.03
2023-02-02T05:38:52.182Z,3.80
2023-02-02T05:43:52.587Z,4.60
2023-02-02T05:48:49.906Z,6.07
2023-02-02T05:53:47.868Z,7.10
2023-02-02T05:58:47.544Z,5.95
2023-02-02T06:03:44.816Z,5.68
2023-02-02T06:08:42.379Z,5.90
2023-02-02T06:13:39.689Z,5.60
2023-02-02T06:18:37.763Z,6.13
2023-02-02T06:23:35.584Z,8.18
2023-02-02T06:28:32.741Z,7.15
2023-02-02T06:33:30.352Z,8.63
2023-02-02T06:38:28.001Z,7.68
2023-02-02T06:43:25.280Z,9.27
2023-02-02T06:48:22.707Z,12.32
2023-02-02T06:53:23.415Z,36.15
2023-02-02T06:58:20.743Z,33.40
2023-02-02T07:03:18.799Z,85.35
2023-02-02T07:08:16.709Z,40.88
2023-02-02T07:13:13.959Z,25.10
2023-02-02T07:18:11.225Z,9.07
2023-02-02T07:23:08.497Z,7.30
2023-02-02T07:28:05.818Z,6.55
2023-02-02T07:33:03.146Z,7.13
2023-02-02T07:38:00.822Z,8.15
2023-02-02T07:43:00.705Z,6.63
2023-02-02T07:47:59.189Z,7.43
2023-02-02T07:52:58.572Z,7.60
2023-02-02T07:57:59.171Z,8.68
2023-02-02T08:02:56.775Z,14.60
2023-02-02T08:07:54.185Z,12.32
2023-02-02T08:12:51.646Z,8.32
2023-02-02T08:17:50.276Z,8.05
2023-02-02T08:22:47.848Z,8.77
2023-02-02T08:27:45.138Z,8.35
2023-02-02T08:32:42.407Z,9.52
2023-02-02T08:37:42.759Z,6.75
2023-02-02T08:42:40.203Z,5.68
2023-02-02T08:47:37.896Z,4.60
2023-02-02T08:52:35.319Z,4.35
2023-02-02T08:57:32.908Z,4.38
2023-02-02T09:02:30.280Z,3.63
2023-02-02T09:07:27.647Z,4.35
2023-02-02T09:12:25.688Z,3.78
2023-02-02T09:17:24.293Z,4.28
2023-02-02T09:22:22.145Z,4.78
2023-02-02T09:27:23.374Z,4.07
2023-02-02T09:32:21.000Z,3.30
2023-02-02T09:37:18.228Z,3.80
2023-02-02T09:42:35.015Z,1.73
2023-02-02T09:47:52.434Z,2.00
2023-02-02T09:53:07.921Z,0.80
2023-02-02T09:58:11.399Z,0.40
2023-02-02T10:03:37.790Z,0.50
2023-02-02T10:08:49.198Z,0.60
2023-02-02T10:13:48.825Z,0.60
2023-02-02T10:18:49.817Z,0.32
2023-02-02T10:23:47.100Z,0.85
2023-02-02T10:28:50.218Z,1.15
2023-02-02T10:34:02.507Z,1.25
2023-02-02T10:39:33.767Z,2.00
2023-02-02T10:44:39.832Z,1.35
2023-02-02T10:49:41.403Z,1.63
2023-02-02T10:54:58.733Z,1.05
2023-02-02T11:00:06.186Z,0.93
2023-02-02T11:05:22.031Z,0.80
2023-02-02T11:10:19.258Z,1.52
2023-02-02T11:15:29.173Z,0.75
2023-02-02T11:20:39.676Z,0.60
2023-02-02T11:30:38.296Z,0.82
2023-02-02T11:40:39.448Z,0.70
2023-02-02T11:45:40.086Z,0.68
2023-02-02T11:50:37.981Z,0.45
2023-02-02T11:55:35.719Z,0.63
2023-02-02T12:00:32.979Z,1.00
2023-02-02T12:05:36.137Z,0.70
2023-02-02T12:10:46.290Z,0.68
2023-02-02T12:16:03.637Z,0.52
2023-02-02T12:21:08.257Z,0.85
2023-02-02T12:26:32.490Z,0.65
2023-02-02T12:31:46.045Z,0.50
2023-02-02T12:37:09.415Z,0.60
2023-02-02T12:42:15.961Z,0.50
2023-02-02T12:47:31.771Z,0.40
2023-02-02T12:53:17.256Z,0.60
2023-02-02T12:58:53.545Z,0.60
2023-02-02T13:04:02.792Z,0.40
2023-02-02T13:09:14.278Z,0.60
2023-02-02T13:14:11.575Z,0.65
2023-02-02T13:19:15.203Z,0.68
2023-02-02T13:24:27.803Z,0.60
2023-02-02T13:29:55.949Z,1.00
2023-02-02T13:35:13.611Z,0.82
2023-02-02T13:40:21.181Z,0.50
2023-02-02T13:45:44.447Z,0.60
2023-02-02T13:51:11.649Z,0.90
2023-02-02T13:56:25.781Z,0.40
2023-02-02T14:01:25.388Z,0.90
2023-02-02T14:06:25.783Z,0.70
2023-02-02T14:11:35.973Z,0.68
2023-02-02T14:16:33.145Z,0.80
2023-02-02T14:21:42.426Z,0.80
2023-02-02T14:26:41.278Z,1.00
2023-02-02T14:31:53.030Z,0.70
2023-02-02T14:37:17.308Z,0.77
2023-02-02T14:43:02.136Z,0.57
2023-02-02T14:48:22.734Z,0.90
2023-02-02T14:53:25.789Z,0.70
2023-02-02T14:58:53.555Z,0.80
2023-02-02T15:03:55.253Z,0.52
2023-02-02T15:09:20.522Z,1.58
2023-02-02T15:14:20.256Z,1.90
2023-02-02T15:19:27.563Z,2.45
2023-02-02T15:24:28.539Z,1.55
2023-02-02T15:29:44.530Z,1.63
2023-02-02T15:34:47.118Z,1.98
2023-02-02T15:39:58.340Z,2.22
2023-02-02T15:44:55.627Z,1.08
2023-02-02T15:49:53.392Z,1.13
2023-02-02T15:54:58.994Z,1.30
2023-02-02T15:59:57.221Z,1.02
2023-02-02T16:04:54.775Z,2.15
2023-02-02T16:09:52.063Z,2.45
2023-02-02T16:14:54.419Z,1.50
2023-02-02T16:20:03.257Z,2.72
2023-02-02T16:25:06.308Z,2.10
2023-02-02T16:30:14.739Z,1.67
2023-02-02T16:35:44.763Z,1.30
2023-02-02T16:40:42.672Z,1.90
2023-02-02T16:45:45.979Z,1.65
2023-02-02T16:50:43.736Z,5.40
2023-02-02T16:55:51.274Z,3.15
2023-02-02T17:01:16.866Z,3.28
2023-02-02T17:06:14.525Z,4.05
2023-02-02T17:11:27.130Z,3.17
2023-02-02T17:16:25.089Z,3.30
2023-02-02T17:21:25.472Z,3.10
2023-02-02T17:26:23.023Z,3.38
2023-02-02T17:31:20.414Z,2.58
2023-02-02T17:36:17.916Z,2.60
2023-02-02T17:41:15.264Z,3.22
2023-02-02T17:46:15.575Z,2.58
2023-02-02T17:51:17.720Z,4.40
2023-02-02T17:56:15.076Z,4.03
2023-02-02T18:01:13.891Z,5.95
2023-02-02T18:06:11.834Z,4.25
2023-02-02T18:11:12.652Z,5.25
2023-02-02T18:16:11.168Z,5.18
2023-02-02T18:21:12.208Z,5.28
2023-02-02T18:26:18.815Z,6.28
2023-02-02T18:31:19.622Z,5.97
2023-02-02T18:36:20.138Z,3.92
2023-02-02T18:41:18.910Z,4.07
2023-02-02T18:46:17.429Z,2.35
2023-02-02T18:51:18.331Z,1.95
2023-02-02T18:56:17.483Z,1.95
2023-02-02T19:01:17.105Z,2.33
2023-02-02T19:06:33.380Z,1.42
2023-02-02T19:11:44.018Z,1.63
2023-02-02T19:16:42.024Z,1.90
2023-02-02T19:21:41.483Z,1.15
2023-02-02T19:26:45.648Z,1.90
2023-02-02T19:31:43.501Z,2.08
2023-02-02T19:36:46.461Z,1.42
2023-02-02T19:41:44.450Z,1.52
2023-02-02T19:46:48.352Z,1.88
2023-02-02T19:51:52.693Z,2.47
2023-02-02T19:56:52.202Z,2.47
2023-02-02T20:01:50.919Z,3.37
2023-02-02T20:06:58.484Z,4.05
2023-02-02T20:11:56.759Z,4.03
2023-02-02T20:16:59.741Z,6.90
2023-02-02T20:21:57.545Z,4.97
2023-02-02T20:26:59.214Z,9.10
2023-02-02T20:31:59.346Z,9.45
2023-02-02T20:37:05.823Z,16.67
2023-02-02T20:42:03.924Z,10.90
2023-02-02T20:47:01.954Z,9.85
2023-02-02T20:52:02.437Z,7.82
2023-02-02T20:57:00.080Z,6.57
2023-02-02T21:01:58.809Z,5.70
2023-02-02T21:06:56.653Z,4.28
2023-02-02T21:11:53.877Z,3.50
2023-02-02T21:16:55.346Z,3.92
2023-02-02T21:21:57.207Z,3.47
2023-02-02T21:26:54.457Z,3.13
2023-02-02T21:31:56.703Z,4.05
2023-02-02T21:36:57.412Z,4.15
2023-02-02T21:42:09.245Z,3.33
2023-02-02T21:47:37.747Z,5.00
2023-02-02T21:52:39.821Z,4.28
2023-02-02T21:57:37.707Z,5.13
2023-02-02T22:02:45.106Z,6.13
2023-02-02T22:07:46.463Z,6.93
2023-02-02T22:12:43.778Z,5.65
2023-02-02T22:17:42.136Z,6.43
2023-02-02T22:22:46.458Z,6.93
2023-02-02T22:27:51.792Z,5.65
2023-02-02T22:32:49.494Z,6.65
2023-02-02T22:37:47.063Z,7.25
2023-02-02T22:42:44.485Z,6.72
2023-02-02T22:47:41.795Z,6.50
2023-02-02T22:52:38.992Z,5.72
2023-02-02T22:57:36.857Z,5.05
2023-02-02T23:02:34.998Z,5.85
2023-02-02T23:07:32.888Z,5.47
2023-02-02T23:12:30.153Z,4.43
2023-02-02T23:17:27.394Z,4.80
2023-02-02T23:22:24.637Z,4.72
2023-02-02T23:27:22.133Z,4.88
2023-02-02T23:32:19.666Z,5.05
2023-02-02T23:37:16.899Z,5.53
2023-02-02T23:42:14.210Z,4.45
2023-02-02T23:47:11.531Z,5.55
2023-02-02T23:52:08.937Z,4.40
2023-02-02T23:57:06.426Z,4.88
